Bei Facebook empfehlenBei Twitter postenGoogle plusPinterest

Das Wetter im Erzgebirge am 15.04.2016

Wetter und Klima am 15.04.2016 Holzhau im Erzgebirge (630m ü.NN)
Letzte gemessene Temperatur und Uhrzeit der Messung23:45:00 Uhr6.40 °C
Temperatur (Maximum / Höchstwert) und Uhrzeit der Messung17:00:00 Uhr11.10 °C
Temperatur (Minimum / Tiefstwert) und Uhrzeit der Messung02:30:00-0.70 °C
Errechneter Absolutwert der Temperaturschwankungen zwischen Tmin und Tmax des Tages11.80 K
Errechnete Tagesmitteltemperatur5.74479 °C
Gesamt - Niederschlag des Tages (in flüssiger Form)0.52 Liter / m²
Luftdruck (Maximum / Höchstwert) und Zeitpunkt der Messung00:15:00 Uhr1008.60 hPa
Luftdruck (Minimum / Tiefstwert) und Zeitpunkt der Messung18:30:00 Uhr1002.20 hPa
Errechneter Absolutwert der Luftdruckschwankungen des Tages6.40 hPa
Höchste gemessene Windgeschwindigkeit und Uhrzeit der Messung23:45:00 Uhr0.00 km/h
Errechnete Windhäufigkeit in Relation zu den Messwerten des Tages0.00000 %
Niedrigste Windkühle (Windchill) und Zeitpunkt der Messung02:30:00 Uhr-0.70 °C
Taupunkt (Maximum / Höchstwert) und Uhrzeit der Messung16:30:00 Uhr8.20 °C
Taupunkt (Minimum / Tiefstwert) und Uhrzeit der Messung02:30:00-2.00 °C
Anzahl der automatisch eingelesenen Messwerte 96

Detaillierte Wetter- und Klima- Messwerte für den 15.04.2016 in Holzhau im Erzgebirge (630m ü.NN)
ZeitTemperaturLuftdruckRel. LuftfeuchteWindWindrichtungWindchillTaupunktNiederschlag l/m²
23:45:006.40 °C1003.00 hPa91.00 %5.00 °C0.52
23:30:006.30 °C1002.90 hPa91.00 %4.90 °C0.52
23:15:006.10 °C1003.10 hPa90.00 %4.60 °C0.52
23:00:006.10 °C1003.10 hPa90.00 %4.60 °C0.52
22:45:006.20 °C1003.00 hPa90.00 %4.70 °C0.52
22:30:006.30 °C1003.10 hPa90.00 %4.80 °C0.52
22:15:006.40 °C1003.10 hPa90.00 %4.90 °C0.52
22:00:006.40 °C1002.90 hPa90.00 %4.90 °C0.52
21:45:006.40 °C1003.20 hPa90.00 %4.90 °C0.52
21:30:006.40 °C1003.10 hPa90.00 %4.90 °C0.52
21:15:006.30 °C1003.00 hPa89.00 %4.60 °C0.52
21:00:005.90 °C1002.90 hPa89.00 %4.20 °C0.52
20:45:005.30 °C1003.00 hPa88.00 %3.50 °C0.52
20:30:005.30 °C1002.70 hPa88.00 %3.50 °C0.52
20:15:005.80 °C1002.80 hPa87.00 %3.80 °C0.52
20:00:006.40 °C1002.70 hPa87.00 %4.40 °C0.52
19:45:006.90 °C1002.70 hPa87.00 %4.90 °C0.52
19:30:007.20 °C1003.00 hPa86.00 %5.00 °C0.52
19:15:007.80 °C1002.90 hPa86.00 %5.60 °C 
19:00:007.60 °C1002.50 hPa86.00 %5.40 °C 
18:45:007.60 °C1002.40 hPa85.00 %5.20 °C 
18:30:008.30 °C1002.20 hPa84.00 %5.80 °C 
18:15:008.80 °C1002.20 hPa84.00 %6.20 °C 
18:00:009.10 °C1002.30 hPa84.00 %6.50 °C 
17:45:009.20 °C1002.30 hPa83.00 %6.50 °C 
17:30:009.80 °C1002.40 hPa82.00 %6.90 °C 
17:15:0010.20 °C1002.60 hPa81.00 %7.10 °C 
17:00:0011.10 °C1002.50 hPa81.00 %8.00 °C 
16:45:0011.10 °C1002.50 hPa82.00 %8.10 °C 
16:30:0010.80 °C1002.30 hPa84.00 %8.20 °C 
16:15:0010.10 °C1002.30 hPa87.00 %8.00 °C 
16:00:009.50 °C1002.60 hPa87.00 %7.40 °C 
15:45:009.50 °C1002.60 hPa87.00 %7.40 °C 
15:30:009.40 °C1002.70 hPa88.00 %7.50 °C 
15:15:008.60 °C1002.70 hPa89.00 %6.90 °C 
15:00:007.90 °C1002.90 hPa88.00 %6.00 °C 
14:45:007.40 °C1003.10 hPa88.00 %5.50 °C 
14:30:007.20 °C1003.20 hPa87.00 %5.20 °C 
14:15:006.90 °C1003.20 hPa86.00 %4.70 °C 
14:00:006.90 °C1003.30 hPa85.00 %4.60 °C 
13:45:007.20 °C1003.30 hPa84.00 %4.70 °C 
13:30:007.60 °C1003.20 hPa83.00 %4.90 °C 
13:15:008.10 °C1003.40 hPa81.00 %5.00 °C 
13:00:008.50 °C1003.30 hPa80.00 %5.30 °C 
12:45:009.20 °C1003.40 hPa79.00 %5.80 °C 
12:30:009.40 °C1003.40 hPa79.00 %5.90 °C 
12:15:009.90 °C1003.80 hPa79.00 %6.40 °C 
12:00:009.50 °C1004.00 hPa80.00 %6.20 °C 
11:45:009.60 °C1004.40 hPa80.00 %6.30 °C 
11:30:009.30 °C1004.30 hPa81.00 %6.20 °C 
11:15:008.90 °C1004.60 hPa80.00 %5.60 °C 
11:00:009.10 °C1004.40 hPa80.00 %5.80 °C 
10:45:008.90 °C1004.50 hPa81.00 %5.80 °C 
10:30:008.80 °C1004.40 hPa82.00 %5.90 °C 
10:15:008.80 °C1004.40 hPa84.00 %6.20 °C 
10:00:008.80 °C1004.60 hPa84.00 %6.20 °C 
09:45:008.60 °C1004.60 hPa86.00 %6.40 °C 
09:30:008.30 °C1004.30 hPa87.00 %6.30 °C 
09:15:007.90 °C1004.50 hPa88.00 %6.00 °C 
09:00:008.10 °C1004.80 hPa90.00 %6.60 °C 
08:45:008.10 °C1004.80 hPa91.00 %6.70 °C 
08:30:007.90 °C1004.90 hPa93.00 %6.80 °C 
08:15:007.70 °C1005.10 hPa94.00 %6.80 °C 
08:00:007.20 °C1005.00 hPa94.00 %6.30 °C 
07:45:006.60 °C1005.20 hPa94.00 %5.70 °C 
07:30:006.10 °C1005.20 hPa94.00 %5.20 °C 
07:15:005.70 °C1005.20 hPa94.00 %4.80 °C 
07:00:005.20 °C1005.70 hPa94.00 %4.30 °C 
06:45:004.40 °C1006.00 hPa94.00 %3.50 °C 
06:30:003.70 °C1006.10 hPa94.00 %2.80 °C 
06:15:002.80 °C1006.00 hPa94.00 %1.90 °C 
06:00:002.40 °C1006.00 hPa94.00 %1.50 °C 
05:45:001.90 °C1006.10 hPa94.00 %1.00 °C 
05:30:001.10 °C1006.10 hPa93.00 %0.10 °C 
05:15:000.50 °C1006.20 hPa93.00 %-0.50 °C 
05:00:00-0.10 °C1006.70 hPa93.00 %-1.20 °C 
04:45:00-0.10 °C1006.50 hPa93.00 %-1.20 °C 
04:30:00-0.20 °C1006.90 hPa93.00 %-1.30 °C 
04:15:00-0.40 °C1006.90 hPa93.00 %-1.50 °C 
04:00:00-0.40 °C1006.90 hPa92.00 %-1.70 °C 
03:45:00-0.20 °C1007.10 hPa92.00 %-1.50 °C 
03:30:00-0.10 °C1007.20 hPa92.00 %-1.40 °C 
03:15:00-0.40 °C1007.40 hPa92.00 %-1.70 °C 
03:00:00-0.40 °C1007.40 hPa92.00 %-1.70 °C 
02:45:00-0.60 °C1007.60 hPa92.00 %-1.90 °C 
02:30:00-0.70 °C1007.80 hPa92.00 %-2.00 °C 
02:15:00-0.60 °C1007.80 hPa92.00 %-1.90 °C 
02:00:00-0.20 °C1008.00 hPa92.00 %-1.50 °C 
01:45:00-0.10 °C1007.80 hPa92.00 %-1.40 °C 
01:30:000.10 °C1007.90 hPa92.00 %-1.00 °C 
01:15:000.20 °C1008.00 hPa92.00 %-0.90 °C 
01:00:000.30 °C1008.10 hPa91.00 %-1.00 °C 
00:45:000.40 °C1008.40 hPa91.00 %-0.90 °C 
00:30:000.60 °C1008.50 hPa91.00 %-0.70 °C 
00:15:000.80 °C1008.60 hPa91.00 %-0.50 °C 
00:00:000.90 °C1008.50 hPa91.00 %-0.40 °C 

Permanenter Link zu dieser Seite: Wetter im Erzgebirge am 15.04.2016
Performance-Info: Die Erstellung der Seite / Statistik(en) / Tabelle(n) erforderte 5 Datenbankserver-Abfrage(n) und dauerte 103 Millisekunden. (Dieser Messwert ist von der Gesamt-Auslastung des Servers abhängig.)
Erzgebirge - Wetter | Erzgebirge - Wetter (Mobilgeräte) | Komplette Klimadatenbank